»·PEaware :: DAL1194 KPDX-KSLC

DAL1194 :: KPDX-KSLC

FLIGHT INFORMATION

Flight Status: Arrived
Operator:
Delta Air Lines
More flights by this operator :: More flights under this callsign
Pilot: Joe P. (13940)
Aircraft: BOEING 737-700
(B737)
More flights by this aircraft type
Origin: KPDX Portland Intl
United States
Destination: KSLC Salt Lake City Intl
United States
More flights between these airports :: More routes between these airports
Route: WHAMY4 IMB J15 BOI BYI SKEES5
File this flight plan on PilotEdge
Remarks: KLAS -PBN / A1B1C1D1L1O1S1 NAV / RNVD1E2A1 DOF / 180817 REG / N389DA EET / KZLC0031 RVR / 200 PER / C
Altitude:
(Current/Filed)
350ft
Speed:
(Current/Filed)
457kts
Departed: 17-Aug-18 04:20 PM
Arrived: 17-Aug-18 05:56 PM
Distance/Time
Traveled:
546nm/1:36
Distance/Time
To Go:
Arrived

Flight Plot

Page will automatically refresh every two minutes.

Flight plan parsing failed; only flown route is shown


Map Options




Map Legend


Flown Route
Filed Route
Departure Airport
Arrival Airport
Navaid (VOR, NDB)
Fix

Horizontal Profiles

Position Reports

Time Latitude Longitude Heading Altitude Ground
Speed
17-Aug-18 15:42 45.590204 -122.594085 31 25ft 0kts
17-Aug-18 15:43 45.590204 -122.594085 31 25ft 0kts
17-Aug-18 15:44 45.590204 -122.594085 31 25ft 0kts
17-Aug-18 15:45 45.590204 -122.594085 31 25ft 0kts
17-Aug-18 15:46 45.590204 -122.594085 31 25ft 0kts
17-Aug-18 15:47 45.590204 -122.594085 31 25ft 0kts
17-Aug-18 15:48 45.590204 -122.594085 31 25ft 0kts
17-Aug-18 15:49 45.590204 -122.594085 31 25ft 0kts
17-Aug-18 15:50 45.590204 -122.594085 31 25ft 0kts
17-Aug-18 15:51 45.590204 -122.594085 31 26ft 0kts
17-Aug-18 15:52 45.590204 -122.594085 31 26ft 0kts
17-Aug-18 15:53 45.590204 -122.594085 31 26ft 0kts
17-Aug-18 15:54 45.590204 -122.594085 31 26ft 0kts
17-Aug-18 15:55 45.590204 -122.594085 31 26ft 0kts
17-Aug-18 15:56 45.590204 -122.594085 31 26ft 0kts
17-Aug-18 15:57 45.590204 -122.594085 31 26ft 0kts
17-Aug-18 15:58 45.590204 -122.594085 31 26ft 0kts
17-Aug-18 15:59 45.590204 -122.594085 31 26ft 0kts
17-Aug-18 16:00 45.590204 -122.594085 31 26ft 0kts
17-Aug-18 16:01 45.590204 -122.594085 31 26ft 0kts
17-Aug-18 16:02 45.590204 -122.594085 31 26ft 0kts
17-Aug-18 16:03 45.590204 -122.594085 31 26ft 0kts
17-Aug-18 16:04 45.590204 -122.594085 31 26ft 0kts
17-Aug-18 16:05 45.590204 -122.594085 31 26ft 0kts
17-Aug-18 16:06 45.590151 -122.594131 29 25ft 2kts
17-Aug-18 16:07 45.589587 -122.594212 305 25ft 2kts
17-Aug-18 16:08 45.589517 -122.594051 299 25ft 0kts
17-Aug-18 16:09 45.589517 -122.594052 299 25ft 0kts
17-Aug-18 16:10 45.589518 -122.594053 299 25ft 0kts
17-Aug-18 16:11 45.589518 -122.594055 299 25ft 0kts
17-Aug-18 16:12 45.590926 -122.597644 305 25ft 15kts
17-Aug-18 16:13 45.594299 -122.597015 111 25ft 19kts
17-Aug-18 16:14 45.591222 -122.589521 119 25ft 21kts
17-Aug-18 16:15 45.588081 -122.581482 119 25ft 21kts
17-Aug-18 16:16 45.585276 -122.574312 117 25ft 21kts
17-Aug-18 16:17 45.583481 -122.569270 65 25ft 0kts
17-Aug-18 16:18 45.583481 -122.569268 65 25ft 0kts
17-Aug-18 16:19 45.584247 -122.568566 316 25ft 5kts
17-Aug-18 16:20 45.584538 -122.569370 298 26ft 29kts
17-Aug-18 16:21 45.601225 -122.616022 292 1823ft 165kts
17-Aug-18 16:22 45.624338 -122.690976 299 3726ft 236kts
17-Aug-18 16:23 45.659706 -122.776739 300 6669ft 266kts
17-Aug-18 16:24 45.658584 -122.883764 247 9846ft 291kts
17-Aug-18 16:25 45.585707 -122.922798 160 12353ft 336kts
17-Aug-18 16:26 45.518475 -122.819545 114 13937ft 387kts
17-Aug-18 16:27 45.473796 -122.676161 112 16355ft 403kts
17-Aug-18 16:28 45.427215 -122.527148 112 18572ft 419kts
17-Aug-18 16:29 45.379259 -122.373154 111 20570ft 433kts
17-Aug-18 16:30 45.329536 -122.214423 112 22353ft 446kts
17-Aug-18 16:31 45.277660 -122.051799 112 23926ft 458kts
17-Aug-18 16:32 45.228281 -121.882997 107 25414ft 466kts
17-Aug-18 16:33 45.183979 -121.707768 107 26710ft 477kts
17-Aug-18 16:34 45.137778 -121.529504 107 27919ft 487kts
17-Aug-18 16:35 45.090886 -121.347267 107 29021ft 495kts
17-Aug-18 16:36 45.043321 -121.165460 107 30516ft 492kts
17-Aug-18 16:37 44.995275 -120.983718 107 31862ft 492kts
17-Aug-18 16:38 44.947175 -120.803277 107 33172ft 490kts
17-Aug-18 16:39 44.898847 -120.623356 107 34347ft 490kts
17-Aug-18 16:40 44.850178 -120.443527 108 35156ft 493kts
17-Aug-18 16:41 44.801288 -120.264219 108 35169ft 490kts
17-Aug-18 16:42 44.752197 -120.084597 108 35172ft 492kts
17-Aug-18 16:43 44.702612 -119.905262 109 35177ft 491kts
17-Aug-18 16:44 44.652474 -119.726175 109 35185ft 492kts
17-Aug-18 16:45 44.600954 -119.548734 110 35195ft 491kts
17-Aug-18 16:46 44.548363 -119.371527 111 35206ft 490kts
17-Aug-18 16:47 44.496193 -119.195076 111 35213ft 490kts
17-Aug-18 16:48 44.444290 -119.019428 111 35219ft 488kts
17-Aug-18 16:49 44.391861 -118.844025 112 35218ft 488kts
17-Aug-18 16:50 44.339147 -118.669123 113 35216ft 487kts
17-Aug-18 16:51 44.286275 -118.495004 113 35208ft 487kts
17-Aug-18 16:52 44.233103 -118.321080 114 35198ft 488kts
17-Aug-18 16:53 44.179527 -118.147026 114 35186ft 488kts
17-Aug-18 16:54 44.125585 -117.972949 114 35172ft 489kts
17-Aug-18 16:55 44.071489 -117.799542 115 35154ft 488kts
17-Aug-18 16:56 44.017302 -117.626991 115 35127ft 487kts
17-Aug-18 16:57 43.962856 -117.454740 115 35095ft 488kts
17-Aug-18 16:58 43.908078 -117.282586 116 35080ft 486kts
17-Aug-18 16:59 43.853424 -117.111926 116 35076ft 484kts
17-Aug-18 17:00 43.798588 -116.941806 117 35080ft 482kts
17-Aug-18 17:01 43.743920 -116.773270 117 35087ft 479kts
17-Aug-18 17:02 43.689126 -116.605407 118 35090ft 476kts
17-Aug-18 17:03 43.634791 -116.439012 118 35084ft 474kts
17-Aug-18 17:04 43.579988 -116.273831 118 35101ft 473kts
17-Aug-18 17:05 43.521554 -116.112347 123 35111ft 470kts
17-Aug-18 17:06 43.457386 -115.955852 124 35120ft 468kts
17-Aug-18 17:07 43.393487 -115.799894 124 35132ft 467kts
17-Aug-18 17:08 43.330088 -115.643720 124 35139ft 467kts
17-Aug-18 17:09 43.266625 -115.488667 124 35146ft 467kts
17-Aug-18 17:10 43.202579 -115.333289 124 35158ft 467kts
17-Aug-18 17:11 43.138514 -115.178816 124 35181ft 467kts
17-Aug-18 17:12 43.074120 -115.024379 125 35208ft 466kts
17-Aug-18 17:13 43.009656 -114.870588 125 35235ft 466kts
17-Aug-18 17:14 42.945069 -114.717308 125 35250ft 466kts
17-Aug-18 17:15 42.880298 -114.564387 125 35251ft 467kts
17-Aug-18 17:16 42.815046 -114.411141 125 35251ft 467kts
17-Aug-18 17:17 42.749390 -114.257728 125 35250ft 470kts
17-Aug-18 17:18 42.683596 -114.104041 125 35239ft 471kts
17-Aug-18 17:19 42.616730 -113.949891 126 35227ft 474kts
17-Aug-18 17:20 42.538602 -113.809001 141 35220ft 464kts
17-Aug-18 17:21 42.446684 -113.686397 141 35220ft 464kts
17-Aug-18 17:22 42.354435 -113.563660 141 35222ft 465kts
17-Aug-18 17:23 42.262083 -113.441201 141 34723ft 465kts
17-Aug-18 17:24 42.169348 -113.318951 141 31938ft 464kts
17-Aug-18 17:25 42.078851 -113.200169 141 29873ft 445kts
17-Aug-18 17:26 41.991644 -113.085563 141 27905ft 430kts
17-Aug-18 17:27 41.907079 -112.974623 140 25974ft 418kts
17-Aug-18 17:28 41.824764 -112.867327 140 24079ft 407kts
17-Aug-18 17:29 41.744156 -112.763054 140 22208ft 397kts
17-Aug-18 17:30 41.665796 -112.661811 139 20372ft 387kts
17-Aug-18 17:31 41.588910 -112.562921 139 18568ft 378kts
17-Aug-18 17:32 41.511700 -112.469909 147 16789ft 369kts
17-Aug-18 17:33 41.424916 -112.401720 155 15592ft 361kts
17-Aug-18 17:34 41.336163 -112.339728 154 14419ft 357kts
17-Aug-18 17:35 41.249096 -112.278511 153 13263ft 352kts
17-Aug-18 17:36 41.163951 -112.214560 151 12602ft 350kts
17-Aug-18 17:37 41.079221 -112.152510 159 12051ft 346kts
17-Aug-18 17:38 40.985552 -112.127296 172 11523ft 343kts
17-Aug-18 17:39 40.891111 -112.107761 173 11005ft 343kts
17-Aug-18 17:40 40.798025 -112.096815 176 10733ft 310kts
17-Aug-18 17:41 40.716366 -112.087669 176 10528ft 286kts
17-Aug-18 17:42 40.635876 -112.078383 175 10336ft 292kts
17-Aug-18 17:43 40.554751 -112.068912 175 10134ft 291kts
17-Aug-18 17:44 40.473505 -112.059456 175 10045ft 292kts
17-Aug-18 17:45 40.392108 -112.050053 175 10040ft 293kts
17-Aug-18 17:46 40.310760 -112.040658 176 10037ft 292kts
17-Aug-18 17:47 40.262787 -111.975398 74 10023ft 290kts
17-Aug-18 17:48 40.327400 -111.945713 342 9350ft 277kts
17-Aug-18 17:49 40.401586 -111.968612 4 9129ft 280kts
17-Aug-18 17:50 40.478617 -111.960660 353 8988ft 277kts
17-Aug-18 17:51 40.552301 -111.969776 354 8046ft 244kts
17-Aug-18 17:52 40.612337 -111.976703 354 7372ft 190kts
17-Aug-18 17:53 40.652432 -111.981310 355 6601ft 163kts
17-Aug-18 17:54 40.705711 -111.987455 353 5590ft 163kts
17-Aug-18 17:55 40.751282 -111.992715 352 4707ft 161kts
17-Aug-18 17:56 40.786570 -111.996904 354 4235ft 107kts
17-Aug-18 17:57 40.794927 -111.996644 49 4235ft 0kts
17-Aug-18 17:58 40.794928 -111.996643 49 4235ft 0kts
17-Aug-18 17:59 40.794929 -111.996641 49 4235ft 0kts
17-Aug-18 18:00 40.795316 -111.996034 45 4235ft 9kts
17-Aug-18 18:01 40.793096 -111.994395 173 4235ft 21kts
17-Aug-18 18:02 40.791157 -111.992260 88 4235ft 13kts
17-Aug-18 18:03 40.791290 -111.986312 150 4235ft 9kts
17-Aug-18 18:04 40.789858 -111.982974 81 4235ft 16kts
17-Aug-18 18:05 40.788462 -111.980026 241 4235ft 5kts
17-Aug-18 18:06 40.788528 -111.980748 282 4235ft 0kts
17-Aug-18 18:07 40.788528 -111.980748 282 4235ft 0kts
17-Aug-18 18:08 40.788528 -111.980748 282 4235ft 0kts
17-Aug-18 18:09 40.788528 -111.980748 282 4235ft 0kts
17-Aug-18 18:10 40.788528 -111.980748 282 4235ft 0kts
17-Aug-18 18:11 40.788528 -111.980748 282 4235ft 0kts

Navigation Log

Ident Type
Flight plan parsing failed, navigation log unavailable